Terminal Aerodrome Forecast
Issued by NWS

Home | Current Version | Previous Version | Text Only | Print | Product List | Glossary On
Versions: 1 2 3 4 5 6 7 8 9 10 11 12 13 14 15 16 17 18 19 20 21 22 23 24 25 26 27
000
FTUS43 KDMX 271727
TAFMCW
TAF
KMCW 271727Z 2718/2818 16010G16KT P6SM BKN150
     FM280000 15007KT P6SM SCT040 BKN100 OVC150
     FM280500 14008KT P6SM -SHRA BKN060 OVC080
     FM281000 14012G18KT 6SM SHRA OVC030=

USA.gov is the U.S. government's official web portal to all federal, state and local government web resources and services.